sensor_id;sensor_type;location;lat;lon;timestamp;temperature;humidity
65854;DHT22;52627;48.838;2.402;2023-08-06T00:00:43;15.97;79.45
65854;DHT22;52627;48.838;2.402;2023-08-06T00:03:11;15.95;79.61
65854;DHT22;52627;48.838;2.402;2023-08-06T00:05:41;15.94;79.60
65854;DHT22;52627;48.838;2.402;2023-08-06T00:08:10;15.92;79.61
65854;DHT22;52627;48.838;2.402;2023-08-06T00:10:39;15.91;79.66
65854;DHT22;52627;48.838;2.402;2023-08-06T00:13:07;15.91;79.75
65854;DHT22;52627;48.838;2.402;2023-08-06T00:15:35;15.90;79.77
65854;DHT22;52627;48.838;2.402;2023-08-06T00:18:03;15.90;79.80
65854;DHT22;52627;48.838;2.402;2023-08-06T00:20:30;15.89;79.80
65854;DHT22;52627;48.838;2.402;2023-08-06T00:22:58;15.89;79.81
65854;DHT22;52627;48.838;2.402;2023-08-06T00:25:25;15.89;79.94
65854;DHT22;52627;48.838;2.402;2023-08-06T00:27:52;15.89;79.99
65854;DHT22;52627;48.838;2.402;2023-08-06T00:30:20;15.89;79.99
65854;DHT22;52627;48.838;2.402;2023-08-06T00:32:47;15.88;80.01
65854;DHT22;52627;48.838;2.402;2023-08-06T00:35:16;15.88;80.00
65854;DHT22;52627;48.838;2.402;2023-08-06T00:37:43;15.87;79.98
65854;DHT22;52627;48.838;2.402;2023-08-06T00:40:10;15.85;79.94
65854;DHT22;52627;48.838;2.402;2023-08-06T00:42:38;15.84;79.89
65854;DHT22;52627;48.838;2.402;2023-08-06T00:45:05;15.82;79.80
65854;DHT22;52627;48.838;2.402;2023-08-06T00:47:34;15.82;79.79
65854;DHT22;52627;48.838;2.402;2023-08-06T00:50:01;15.83;79.79
65854;DHT22;52627;48.838;2.402;2023-08-06T00:52:29;15.83;79.80
65854;DHT22;52627;48.838;2.402;2023-08-06T00:54:57;15.83;79.92
65854;DHT22;52627;48.838;2.402;2023-08-06T00:57:25;15.82;79.99
65854;DHT22;52627;48.838;2.402;2023-08-06T00:59:55;15.79;80.00
65854;DHT22;52627;48.838;2.402;2023-08-06T01:02:23;15.77;80.10
65854;DHT22;52627;48.838;2.402;2023-08-06T01:04:50;15.75;80.13
65854;DHT22;52627;48.838;2.402;2023-08-06T01:12:45;15.68;80.36
65854;DHT22;52627;48.838;2.402;2023-08-06T01:15:22;15.65;80.40
65854;DHT22;52627;48.838;2.402;2023-08-06T01:17:56;15.63;80.43
65854;DHT22;52627;48.838;2.402;2023-08-06T01:20:31;15.61;80.41
65854;DHT22;52627;48.838;2.402;2023-08-06T01:22:58;15.60;80.47
65854;DHT22;52627;48.838;2.402;2023-08-06T01:25:30;15.58;80.48
65854;DHT22;52627;48.838;2.402;2023-08-06T01:28:15;15.58;80.43
65854;DHT22;52627;48.838;2.402;2023-08-06T01:30:54;15.57;80.47
65854;DHT22;52627;48.838;2.402;2023-08-06T01:33:26;15.55;80.49
65854;DHT22;52627;48.838;2.402;2023-08-06T01:35:57;15.53;80.47
65854;DHT22;52627;48.838;2.402;2023-08-06T01:38:26;15.53;80.50
65854;DHT22;52627;48.838;2.402;2023-08-06T01:40:55;15.52;80.50
65854;DHT22;52627;48.838;2.402;2023-08-06T01:43:22;15.51;80.50
65854;DHT22;52627;48.838;2.402;2023-08-06T01:45:50;15.50;80.44
65854;DHT22;52627;48.838;2.402;2023-08-06T01:48:17;15.49;80.40
65854;DHT22;52627;48.838;2.402;2023-08-06T01:50:45;15.48;80.40
65854;DHT22;52627;48.838;2.402;2023-08-06T01:53:12;15.50;80.36
65854;DHT22;52627;48.838;2.402;2023-08-06T01:55:40;15.50;80.30
65854;DHT22;52627;48.838;2.402;2023-08-06T01:58:07;15.50;80.22
65854;DHT22;52627;48.838;2.402;2023-08-06T02:00:34;15.49;80.09
65854;DHT22;52627;48.838;2.402;2023-08-06T02:03:02;15.48;80.01
65854;DHT22;52627;48.838;2.402;2023-08-06T02:05:29;15.47;79.91
65854;DHT22;52627;48.838;2.402;2023-08-06T02:07:57;15.46;79.86
65854;DHT22;52627;48.838;2.402;2023-08-06T02:10:24;15.46;79.83
65854;DHT22;52627;48.838;2.402;2023-08-06T02:12:52;15.47;79.77
65854;DHT22;52627;48.838;2.402;2023-08-06T02:15:19;15.45;79.62
65854;DHT22;52627;48.838;2.402;2023-08-06T02:17:47;15.45;79.60
65854;DHT22;52627;48.838;2.402;2023-08-06T02:20:14;15.45;79.60
65854;DHT22;52627;48.838;2.402;2023-08-06T02:22:41;15.46;79.54
65854;DHT22;52627;48.838;2.402;2023-08-06T02:25:09;15.46;79.48
65854;DHT22;52627;48.838;2.402;2023-08-06T02:27:37;15.46;79.40
65854;DHT22;52627;48.838;2.402;2023-08-06T02:30:05;15.45;79.36
65854;DHT22;52627;48.838;2.402;2023-08-06T02:32:35;15.45;79.31
65854;DHT22;52627;48.838;2.402;2023-08-06T02:35:03;15.44;79.33
65854;DHT22;52627;48.838;2.402;2023-08-06T02:37:32;15.43;79.36
65854;DHT22;52627;48.838;2.402;2023-08-06T02:40:01;15.43;79.40
65854;DHT22;52627;48.838;2.402;2023-08-06T02:42:29;15.42;79.40
65854;DHT22;52627;48.838;2.402;2023-08-06T02:44:56;15.41;79.43
65854;DHT22;52627;48.838;2.402;2023-08-06T02:47:24;15.42;79.54
65854;DHT22;52627;48.838;2.402;2023-08-06T02:49:51;15.40;79.67
65854;DHT22;52627;48.838;2.402;2023-08-06T02:52:19;15.37;79.71
65854;DHT22;52627;48.838;2.402;2023-08-06T02:54:46;15.36;79.72
65854;DHT22;52627;48.838;2.402;2023-08-06T02:57:14;15.34;79.78
65854;DHT22;52627;48.838;2.402;2023-08-06T02:59:41;15.33;79.73
65854;DHT22;52627;48.838;2.402;2023-08-06T03:02:09;15.32;79.71
65854;DHT22;52627;48.838;2.402;2023-08-06T03:04:36;15.31;79.61
65854;DHT22;52627;48.838;2.402;2023-08-06T03:07:03;15.31;79.59
65854;DHT22;52627;48.838;2.402;2023-08-06T03:09:31;15.30;79.49
65854;DHT22;52627;48.838;2.402;2023-08-06T03:11:58;15.31;79.44
65854;DHT22;52627;48.838;2.402;2023-08-06T03:14:26;15.30;79.34
65854;DHT22;52627;48.838;2.402;2023-08-06T03:16:53;15.29;79.30
65854;DHT22;52627;48.838;2.402;2023-08-06T03:19:21;15.29;79.31
65854;DHT22;52627;48.838;2.402;2023-08-06T03:21:48;15.29;79.20
65854;DHT22;52627;48.838;2.402;2023-08-06T03:24:16;15.29;79.20
65854;DHT22;52627;48.838;2.402;2023-08-06T03:26:43;15.29;79.14
65854;DHT22;52627;48.838;2.402;2023-08-06T03:29:11;15.27;79.08
65854;DHT22;52627;48.838;2.402;2023-08-06T03:31:38;15.26;79.07
65854;DHT22;52627;48.838;2.402;2023-08-06T03:34:06;15.27;79.10
65854;DHT22;52627;48.838;2.402;2023-08-06T03:36:33;15.27;79.02
65854;DHT22;52627;48.838;2.402;2023-08-06T03:39:01;15.28;79.00
65854;DHT22;52627;48.838;2.402;2023-08-06T03:41:28;15.27;78.98
65854;DHT22;52627;48.838;2.402;2023-08-06T03:43:56;15.26;78.97
65854;DHT22;52627;48.838;2.402;2023-08-06T03:46:23;15.25;78.94
65854;DHT22;52627;48.838;2.402;2023-08-06T03:48:51;15.25;78.90
65854;DHT22;52627;48.838;2.402;2023-08-06T03:51:18;15.23;78.87
65854;DHT22;52627;48.838;2.402;2023-08-06T03:53:45;15.21;78.80
65854;DHT22;52627;48.838;2.402;2023-08-06T03:56:13;15.19;78.80
65854;DHT22;52627;48.838;2.402;2023-08-06T03:58:40;15.19;78.80
65854;DHT22;52627;48.838;2.402;2023-08-06T04:01:08;15.19;78.80
65854;DHT22;52627;48.838;2.402;2023-08-06T04:03:35;15.19;78.73
65854;DHT22;52627;48.838;2.402;2023-08-06T04:06:03;15.18;78.69
65854;DHT22;52627;48.838;2.402;2023-08-06T04:08:31;15.18;78.65
65854;DHT22;52627;48.838;2.402;2023-08-06T04:10:59;15.17;78.67
65854;DHT22;52627;48.838;2.402;2023-08-06T04:13:26;15.19;78.60
65854;DHT22;52627;48.838;2.402;2023-08-06T04:15:54;15.19;78.60
65854;DHT22;52627;48.838;2.402;2023-08-06T04:18:21;15.19;78.55
65854;DHT22;52627;48.838;2.402;2023-08-06T04:20:49;15.20;78.50
65854;DHT22;52627;48.838;2.402;2023-08-06T04:23:16;15.20;78.45
65854;DHT22;52627;48.838;2.402;2023-08-06T04:25:44;15.20;78.41
65854;DHT22;52627;48.838;2.402;2023-08-06T04:28:11;15.22;78.39
65854;DHT22;52627;48.838;2.402;2023-08-06T04:30:39;15.22;78.30
65854;DHT22;52627;48.838;2.402;2023-08-06T04:33:06;15.23;78.24
65854;DHT22;52627;48.838;2.402;2023-08-06T04:35:34;15.22;78.11
65854;DHT22;52627;48.838;2.402;2023-08-06T04:38:01;15.23;78.08
65854;DHT22;52627;48.838;2.402;2023-08-06T04:40:28;15.22;77.92
65854;DHT22;52627;48.838;2.402;2023-08-06T04:42:56;15.20;77.87
65854;DHT22;52627;48.838;2.402;2023-08-06T04:45:23;15.19;77.74
65854;DHT22;52627;48.838;2.402;2023-08-06T04:47:51;15.17;77.74
65854;DHT22;52627;48.838;2.402;2023-08-06T04:50:19;15.18;77.77
65854;DHT22;52627;48.838;2.402;2023-08-06T04:52:47;15.19;77.71
65854;DHT22;52627;48.838;2.402;2023-08-06T04:55:14;15.19;77.66
65854;DHT22;52627;48.838;2.402;2023-08-06T04:57:42;15.19;77.61
65854;DHT22;52627;48.838;2.402;2023-08-06T05:00:09;15.20;77.60
65854;DHT22;52627;48.838;2.402;2023-08-06T05:02:37;15.21;77.55
65854;DHT22;52627;48.838;2.402;2023-08-06T05:05:06;15.21;77.51
65854;DHT22;52627;48.838;2.402;2023-08-06T05:07:34;15.23;77.54
65854;DHT22;52627;48.838;2.402;2023-08-06T05:10:01;15.25;77.50
65854;DHT22;52627;48.838;2.402;2023-08-06T05:12:31;15.25;77.38
65854;DHT22;52627;48.838;2.402;2023-08-06T05:14:59;15.26;77.31
65854;DHT22;52627;48.838;2.402;2023-08-06T05:17:26;15.26;77.31
65854;DHT22;52627;48.838;2.402;2023-08-06T05:19:54;15.28;77.30
65854;DHT22;52627;48.838;2.402;2023-08-06T05:22:21;15.29;77.21
65854;DHT22;52627;48.838;2.402;2023-08-06T05:24:49;15.29;77.19
65854;DHT22;52627;48.838;2.402;2023-08-06T05:27:16;15.30;77.13
65854;DHT22;52627;48.838;2.402;2023-08-06T05:29:48;15.31;77.10
65854;DHT22;52627;48.838;2.402;2023-08-06T05:32:16;15.33;77.10
65854;DHT22;52627;48.838;2.402;2023-08-06T05:34:43;15.35;77.07
65854;DHT22;52627;48.838;2.402;2023-08-06T05:37:10;15.36;77.00
65854;DHT22;52627;48.838;2.402;2023-08-06T05:39:38;15.37;77.00
65854;DHT22;52627;48.838;2.402;2023-08-06T05:42:05;15.37;76.92
65854;DHT22;52627;48.838;2.402;2023-08-06T05:44:33;15.38;76.96
65854;DHT22;52627;48.838;2.402;2023-08-06T05:47:01;15.39;76.94
65854;DHT22;52627;48.838;2.402;2023-08-06T05:49:28;15.39;76.97
65854;DHT22;52627;48.838;2.402;2023-08-06T05:51:55;15.41;76.99
65854;DHT22;52627;48.838;2.402;2023-08-06T05:54:23;15.42;77.00
65854;DHT22;52627;48.838;2.402;2023-08-06T05:56:50;15.45;76.97
65854;DHT22;52627;48.838;2.402;2023-08-06T05:59:18;15.48;76.94
65854;DHT22;52627;48.838;2.402;2023-08-06T06:01:45;15.53;76.94
65854;DHT22;52627;48.838;2.402;2023-08-06T06:04:13;15.58;76.96
65854;DHT22;52627;48.838;2.402;2023-08-06T06:06:40;15.61;76.90
65854;DHT22;52627;48.838;2.402;2023-08-06T06:09:09;15.62;76.79
65854;DHT22;52627;48.838;2.402;2023-08-06T06:11:36;15.60;76.69
65854;DHT22;52627;48.838;2.402;2023-08-06T06:14:03;15.61;76.70
65854;DHT22;52627;48.838;2.402;2023-08-06T06:16:31;15.64;76.64
65854;DHT22;52627;48.838;2.402;2023-08-06T06:18:58;15.66;76.60
65854;DHT22;52627;48.838;2.402;2023-08-06T06:21:26;15.72;76.58
65854;DHT22;52627;48.838;2.402;2023-08-06T06:23:53;15.78;76.50
65854;DHT22;52627;48.838;2.402;2023-08-06T06:26:21;15.85;76.44
65854;DHT22;52627;48.838;2.402;2023-08-06T06:28:48;15.91;76.30
65854;DHT22;52627;48.838;2.402;2023-08-06T06:31:16;15.97;76.22
65854;DHT22;52627;48.838;2.402;2023-08-06T06:33:43;16.02;76.06
65854;DHT22;52627;48.838;2.402;2023-08-06T06:36:10;16.07;76.01
65854;DHT22;52627;48.838;2.402;2023-08-06T06:38:38;16.13;75.96
65854;DHT22;52627;48.838;2.402;2023-08-06T06:41:06;16.17;75.81
65854;DHT22;52627;48.838;2.402;2023-08-06T06:43:34;16.19;75.55
65854;DHT22;52627;48.838;2.402;2023-08-06T06:46:01;16.20;75.32
65854;DHT22;52627;48.838;2.402;2023-08-06T06:48:30;16.23;75.24
65854;DHT22;52627;48.838;2.402;2023-08-06T06:50:59;16.28;75.20
65854;DHT22;52627;48.838;2.402;2023-08-06T06:53:27;16.34;75.05
65854;DHT22;52627;48.838;2.402;2023-08-06T06:55:55;16.40;74.79
65854;DHT22;52627;48.838;2.402;2023-08-06T06:58:23;16.47;74.57
65854;DHT22;52627;48.838;2.402;2023-08-06T07:00:51;16.53;74.42
65854;DHT22;52627;48.838;2.402;2023-08-06T07:03:19;16.61;74.31
65854;DHT22;52627;48.838;2.402;2023-08-06T07:05:48;16.85;74.14
65854;DHT22;52627;48.838;2.402;2023-08-06T07:08:16;17.26;73.81
65854;DHT22;52627;48.838;2.402;2023-08-06T07:10:44;17.49;73.49
65854;DHT22;52627;48.838;2.402;2023-08-06T07:13:11;17.65;73.04
65854;DHT22;52627;48.838;2.402;2023-08-06T07:15:39;18.00;72.93
65854;DHT22;52627;48.838;2.402;2023-08-06T07:18:06;18.23;72.71
65854;DHT22;52627;48.838;2.402;2023-08-06T07:20:34;18.39;72.14
65854;DHT22;52627;48.838;2.402;2023-08-06T07:23:01;18.60;71.54
65854;DHT22;52627;48.838;2.402;2023-08-06T07:25:29;18.91;70.85
65854;DHT22;52627;48.838;2.402;2023-08-06T07:27:56;19.27;70.06
65854;DHT22;52627;48.838;2.402;2023-08-06T07:30:24;19.55;69.12
65854;DHT22;52627;48.838;2.402;2023-08-06T07:32:52;19.87;68.93
65854;DHT22;52627;48.838;2.402;2023-08-06T07:35:19;20.27;68.63
65854;DHT22;52627;48.838;2.402;2023-08-06T07:37:47;20.73;67.80
65854;DHT22;52627;48.838;2.402;2023-08-06T07:40:14;21.30;67.65
65854;DHT22;52627;48.838;2.402;2023-08-06T07:42:42;21.82;65.70
65854;DHT22;52627;48.838;2.402;2023-08-06T07:45:09;22.07;65.44
65854;DHT22;52627;48.838;2.402;2023-08-06T07:47:37;22.57;64.98
65854;DHT22;52627;48.838;2.402;2023-08-06T07:50:05;23.06;64.09
65854;DHT22;52627;48.838;2.402;2023-08-06T07:52:33;23.36;62.98
65854;DHT22;52627;48.838;2.402;2023-08-06T07:55:00;23.69;61.52
65854;DHT22;52627;48.838;2.402;2023-08-06T07:57:31;23.74;60.72
65854;DHT22;52627;48.838;2.402;2023-08-06T08:00:00;23.92;60.58
65854;DHT22;52627;48.838;2.402;2023-08-06T08:02:28;24.13;59.84
65854;DHT22;52627;48.838;2.402;2023-08-06T08:04:57;24.46;59.13
65854;DHT22;52627;48.838;2.402;2023-08-06T08:07:25;24.40;58.15
65854;DHT22;52627;48.838;2.402;2023-08-06T08:09:54;24.60;57.34
65854;DHT22;52627;48.838;2.402;2023-08-06T08:12:22;24.88;56.23
65854;DHT22;52627;48.838;2.402;2023-08-06T08:14:49;24.95;54.97
65854;DHT22;52627;48.838;2.402;2023-08-06T08:17:17;25.13;54.70
65854;DHT22;52627;48.838;2.402;2023-08-06T08:19:44;25.45;53.76
65854;DHT22;52627;48.838;2.402;2023-08-06T08:22:12;25.87;53.20
65854;DHT22;52627;48.838;2.402;2023-08-06T08:24:39;26.31;51.93
65854;DHT22;52627;48.838;2.402;2023-08-06T08:27:07;26.37;50.70
65854;DHT22;52627;48.838;2.402;2023-08-06T08:29:34;25.93;50.23
65854;DHT22;52627;48.838;2.402;2023-08-06T08:32:01;25.59;49.78
65854;DHT22;52627;48.838;2.402;2023-08-06T08:34:29;25.11;48.75
65854;DHT22;52627;48.838;2.402;2023-08-06T08:36:56;24.38;48.05
65854;DHT22;52627;48.838;2.402;2023-08-06T08:39:24;24.15;48.33
65854;DHT22;52627;48.838;2.402;2023-08-06T08:41:51;24.65;47.84
65854;DHT22;52627;48.838;2.402;2023-08-06T08:44:19;25.07;46.99
65854;DHT22;52627;48.838;2.402;2023-08-06T08:46:47;25.18;45.93
65854;DHT22;52627;48.838;2.402;2023-08-06T08:49:16;25.20;45.78
65854;DHT22;52627;48.838;2.402;2023-08-06T08:51:44;25.49;45.91
65854;DHT22;52627;48.838;2.402;2023-08-06T08:54:14;25.90;45.44
65854;DHT22;52627;48.838;2.402;2023-08-06T08:56:43;26.37;44.68
65854;DHT22;52627;48.838;2.402;2023-08-06T08:59:11;26.69;44.01
65854;DHT22;52627;48.838;2.402;2023-08-06T09:01:38;26.50;43.45
65854;DHT22;52627;48.838;2.402;2023-08-06T09:04:09;26.08;43.37
65854;DHT22;52627;48.838;2.402;2023-08-06T09:06:37;25.88;43.09
65854;DHT22;52627;48.838;2.402;2023-08-06T09:09:08;25.84;42.88
65854;DHT22;52627;48.838;2.402;2023-08-06T09:11:43;25.97;42.22
65854;DHT22;52627;48.838;2.402;2023-08-06T09:14:11;26.10;41.87
65854;DHT22;52627;48.838;2.402;2023-08-06T09:16:39;26.23;41.64
65854;DHT22;52627;48.838;2.402;2023-08-06T09:19:10;26.42;41.34
65854;DHT22;52627;48.838;2.402;2023-08-06T09:21:45;26.74;40.85
65854;DHT22;52627;48.838;2.402;2023-08-06T09:24:16;27.04;40.33
65854;DHT22;52627;48.838;2.402;2023-08-06T09:26:44;27.35;40.35
65854;DHT22;52627;48.838;2.402;2023-08-06T09:29:12;27.60;40.28
65854;DHT22;52627;48.838;2.402;2023-08-06T09:31:42;27.26;40.00
65854;DHT22;52627;48.838;2.402;2023-08-06T09:34:17;26.94;39.71
65854;DHT22;52627;48.838;2.402;2023-08-06T09:36:53;26.75;39.46
65854;DHT22;52627;48.838;2.402;2023-08-06T09:39:28;27.00;39.50
65854;DHT22;52627;48.838;2.402;2023-08-06T09:41:57;27.33;38.89
65854;DHT22;52627;48.838;2.402;2023-08-06T09:44:29;27.53;38.81
65854;DHT22;52627;48.838;2.402;2023-08-06T09:47:00;27.35;38.52
65854;DHT22;52627;48.838;2.402;2023-08-06T09:52:01;26.75;38.41
65854;DHT22;52627;48.838;2.402;2023-08-06T09:54:29;26.10;38.15
65854;DHT22;52627;48.838;2.402;2023-08-06T09:56:57;25.66;38.46
65854;DHT22;52627;48.838;2.402;2023-08-06T09:59:25;25.83;38.54
65854;DHT22;52627;48.838;2.402;2023-08-06T10:01:54;26.21;38.61
65854;DHT22;52627;48.838;2.402;2023-08-06T10:04:25;26.39;38.26
65854;DHT22;52627;48.838;2.402;2023-08-06T10:07:01;26.41;37.77
65854;DHT22;52627;48.838;2.402;2023-08-06T10:09:29;26.43;37.63
65854;DHT22;52627;48.838;2.402;2023-08-06T10:11:57;26.36;37.57
65854;DHT22;52627;48.838;2.402;2023-08-06T10:14:27;26.50;37.41
65854;DHT22;52627;48.838;2.402;2023-08-06T10:16:59;26.83;37.37
65854;DHT22;52627;48.838;2.402;2023-08-06T10:19:27;27.10;37.30
65854;DHT22;52627;48.838;2.402;2023-08-06T10:24:48;26.63;37.30
65854;DHT22;52627;48.838;2.402;2023-08-06T10:27:28;26.25;37.35
65854;DHT22;52627;48.838;2.402;2023-08-06T10:30:32;26.19;37.35
65854;DHT22;52627;48.838;2.402;2023-08-06T10:33:01;26.34;36.91
65854;DHT22;52627;48.838;2.402;2023-08-06T10:38:08;25.97;36.96
65854;DHT22;52627;48.838;2.402;2023-08-06T10:41:00;26.01;37.10
65854;DHT22;52627;48.838;2.402;2023-08-06T10:43:33;26.20;37.16
65854;DHT22;52627;48.838;2.402;2023-08-06T10:46:02;26.28;37.26
65854;DHT22;52627;48.838;2.402;2023-08-06T10:48:40;26.59;37.09
65854;DHT22;52627;48.838;2.402;2023-08-06T10:51:09;26.92;37.11
65854;DHT22;52627;48.838;2.402;2023-08-06T10:53:46;27.13;36.90
65854;DHT22;52627;48.838;2.402;2023-08-06T10:56:17;26.99;36.84
65854;DHT22;52627;48.838;2.402;2023-08-06T10:58:47;26.71;36.79
65854;DHT22;52627;48.838;2.402;2023-08-06T11:01:15;26.46;36.86
65854;DHT22;52627;48.838;2.402;2023-08-06T11:03:44;26.33;36.85
65854;DHT22;52627;48.838;2.402;2023-08-06T11:06:20;26.27;36.82
65854;DHT22;52627;48.838;2.402;2023-08-06T11:08:50;26.23;36.82
65854;DHT22;52627;48.838;2.402;2023-08-06T11:11:21;26.23;36.83
65854;DHT22;52627;48.838;2.402;2023-08-06T11:13:50;26.17;37.01
65854;DHT22;52627;48.838;2.402;2023-08-06T11:16:20;26.08;37.00
65854;DHT22;52627;48.838;2.402;2023-08-06T11:18:51;25.81;37.09
65854;DHT22;52627;48.838;2.402;2023-08-06T11:21:21;25.86;37.18
65854;DHT22;52627;48.838;2.402;2023-08-06T11:23:52;26.06;37.18
65854;DHT22;52627;48.838;2.402;2023-08-06T11:26:21;26.26;37.30
65854;DHT22;52627;48.838;2.402;2023-08-06T11:28:51;26.38;37.10
65854;DHT22;52627;48.838;2.402;2023-08-06T11:31:22;26.10;36.94
65854;DHT22;52627;48.838;2.402;2023-08-06T11:33:51;25.83;37.16
65854;DHT22;52627;48.838;2.402;2023-08-06T11:39:01;25.09;37.07
65854;DHT22;52627;48.838;2.402;2023-08-06T11:41:32;24.65;37.22
65854;DHT22;52627;48.838;2.402;2023-08-06T11:43:59;24.28;37.44
65854;DHT22;52627;48.838;2.402;2023-08-06T11:46:27;24.06;37.73
65854;DHT22;52627;48.838;2.402;2023-08-06T11:48:56;24.02;37.96
65854;DHT22;52627;48.838;2.402;2023-08-06T11:51:25;23.96;38.17
65854;DHT22;52627;48.838;2.402;2023-08-06T11:53:57;23.78;38.32
65854;DHT22;52627;48.838;2.402;2023-08-06T11:56:25;23.59;38.61
65854;DHT22;52627;48.838;2.402;2023-08-06T11:58:54;23.53;38.93
65854;DHT22;52627;48.838;2.402;2023-08-06T12:01:23;23.55;39.17
65854;DHT22;52627;48.838;2.402;2023-08-06T12:03:50;23.75;39.37
65854;DHT22;52627;48.838;2.402;2023-08-06T12:06:18;24.07;39.40
65854;DHT22;52627;48.838;2.402;2023-08-06T12:08:46;24.34;39.47
65854;DHT22;52627;48.838;2.402;2023-08-06T12:11:13;24.41;39.56
65854;DHT22;52627;48.838;2.402;2023-08-06T12:13:41;24.40;39.52
65854;DHT22;52627;48.838;2.402;2023-08-06T12:16:08;24.26;39.34
65854;DHT22;52627;48.838;2.402;2023-08-06T12:18:36;24.00;39.46
65854;DHT22;52627;48.838;2.402;2023-08-06T12:21:03;23.73;39.51
65854;DHT22;52627;48.838;2.402;2023-08-06T12:23:30;23.41;39.50
65854;DHT22;52627;48.838;2.402;2023-08-06T12:26:00;23.11;39.66
65854;DHT22;52627;48.838;2.402;2023-08-06T12:28:27;22.81;40.41
65854;DHT22;52627;48.838;2.402;2023-08-06T12:30:55;22.61;41.21
65854;DHT22;52627;48.838;2.402;2023-08-06T12:33:22;22.66;41.48
65854;DHT22;52627;48.838;2.402;2023-08-06T12:35:50;22.74;41.55
65854;DHT22;52627;48.838;2.402;2023-08-06T12:38:17;22.82;41.61
65854;DHT22;52627;48.838;2.402;2023-08-06T12:40:45;22.92;41.77
65854;DHT22;52627;48.838;2.402;2023-08-06T12:43:12;23.04;41.97
65854;DHT22;52627;48.838;2.402;2023-08-06T12:45:40;23.31;42.04
65854;DHT22;52627;48.838;2.402;2023-08-06T12:48:08;23.60;41.79
65854;DHT22;52627;48.838;2.402;2023-08-06T12:50:35;23.84;41.57
65854;DHT22;52627;48.838;2.402;2023-08-06T12:53:03;24.05;41.58
65854;DHT22;52627;48.838;2.402;2023-08-06T12:55:32;24.11;41.27
65854;DHT22;52627;48.838;2.402;2023-08-06T12:58:00;24.08;41.21
65854;DHT22;52627;48.838;2.402;2023-08-06T13:00:27;24.07;40.95
65854;DHT22;52627;48.838;2.402;2023-08-06T13:02:55;24.05;40.74
65854;DHT22;52627;48.838;2.402;2023-08-06T13:05:23;24.04;40.62
65854;DHT22;52627;48.838;2.402;2023-08-06T13:07:50;24.23;40.73
65854;DHT22;52627;48.838;2.402;2023-08-06T13:10:18;24.19;40.58
65854;DHT22;52627;48.838;2.402;2023-08-06T13:12:47;24.06;40.52
65854;DHT22;52627;48.838;2.402;2023-08-06T13:15:14;23.99;40.57
65854;DHT22;52627;48.838;2.402;2023-08-06T13:17:44;23.92;40.66
65854;DHT22;52627;48.838;2.402;2023-08-06T13:20:12;23.96;40.71
65854;DHT22;52627;48.838;2.402;2023-08-06T13:22:39;23.99;40.78
65854;DHT22;52627;48.838;2.402;2023-08-06T13:25:06;23.88;40.70
65854;DHT22;52627;48.838;2.402;2023-08-06T13:27:34;23.67;40.80
65854;DHT22;52627;48.838;2.402;2023-08-06T13:30:01;23.51;41.00
65854;DHT22;52627;48.838;2.402;2023-08-06T13:32:30;23.35;41.16
65854;DHT22;52627;48.838;2.402;2023-08-06T13:34:59;23.15;41.35
65854;DHT22;52627;48.838;2.402;2023-08-06T13:37:27;23.06;41.70
65854;DHT22;52627;48.838;2.402;2023-08-06T13:39:54;23.10;41.94
65854;DHT22;52627;48.838;2.402;2023-08-06T13:42:22;23.24;42.08
65854;DHT22;52627;48.838;2.402;2023-08-06T13:44:50;23.36;42.08
65854;DHT22;52627;48.838;2.402;2023-08-06T13:47:17;23.44;42.13
65854;DHT22;52627;48.838;2.402;2023-08-06T13:49:45;23.57;42.16
65854;DHT22;52627;48.838;2.402;2023-08-06T13:52:30;23.64;41.90
65854;DHT22;52627;48.838;2.402;2023-08-06T13:54:57;23.62;41.87
65854;DHT22;52627;48.838;2.402;2023-08-06T13:57:25;23.61;41.85
65854;DHT22;52627;48.838;2.402;2023-08-06T13:59:52;23.56;41.63
65854;DHT22;52627;48.838;2.402;2023-08-06T14:02:20;23.50;41.54
65854;DHT22;52627;48.838;2.402;2023-08-06T14:04:47;23.41;41.47
65854;DHT22;52627;48.838;2.402;2023-08-06T14:07:15;23.38;41.45
65854;DHT22;52627;48.838;2.402;2023-08-06T14:09:42;23.35;41.48
65854;DHT22;52627;48.838;2.402;2023-08-06T14:12:11;23.33;41.56
65854;DHT22;52627;48.838;2.402;2023-08-06T14:14:39;23.25;41.62
65854;DHT22;52627;48.838;2.402;2023-08-06T14:17:07;23.16;41.81
65854;DHT22;52627;48.838;2.402;2023-08-06T14:19:34;23.10;41.93
65854;DHT22;52627;48.838;2.402;2023-08-06T14:22:01;23.11;41.95
65854;DHT22;52627;48.838;2.402;2023-08-06T14:24:29;23.14;41.99
65854;DHT22;52627;48.838;2.402;2023-08-06T14:26:56;23.17;42.09
65854;DHT22;52627;48.838;2.402;2023-08-06T14:29:24;23.26;42.13
65854;DHT22;52627;48.838;2.402;2023-08-06T14:31:51;23.36;42.20
65854;DHT22;52627;48.838;2.402;2023-08-06T14:34:19;23.49;42.18
65854;DHT22;52627;48.838;2.402;2023-08-06T14:36:46;23.63;42.21
65854;DHT22;52627;48.838;2.402;2023-08-06T14:39:14;23.73;42.17
65854;DHT22;52627;48.838;2.402;2023-08-06T14:41:41;23.77;42.13
65854;DHT22;52627;48.838;2.402;2023-08-06T14:44:08;23.81;41.96
65854;DHT22;52627;48.838;2.402;2023-08-06T14:46:36;23.73;41.74
65854;DHT22;52627;48.838;2.402;2023-08-06T14:49:03;23.64;41.67
65854;DHT22;52627;48.838;2.402;2023-08-06T14:51:31;23.55;41.70
65854;DHT22;52627;48.838;2.402;2023-08-06T14:53:58;23.41;41.67
65854;DHT22;52627;48.838;2.402;2023-08-06T14:56:26;23.24;41.59
65854;DHT22;52627;48.838;2.402;2023-08-06T14:58:53;23.05;41.52
65854;DHT22;52627;48.838;2.402;2023-08-06T15:01:20;22.89;41.41
65854;DHT22;52627;48.838;2.402;2023-08-06T15:03:48;22.90;41.69
65854;DHT22;52627;48.838;2.402;2023-08-06T15:06:15;23.07;41.79
65854;DHT22;52627;48.838;2.402;2023-08-06T15:08:43;23.23;41.79
65854;DHT22;52627;48.838;2.402;2023-08-06T15:11:13;23.25;41.59
65854;DHT22;52627;48.838;2.402;2023-08-06T15:13:41;23.26;41.74
65854;DHT22;52627;48.838;2.402;2023-08-06T15:16:09;23.29;41.79
65854;DHT22;52627;48.838;2.402;2023-08-06T15:18:36;23.31;41.82
65854;DHT22;52627;48.838;2.402;2023-08-06T15:21:04;23.31;41.88
65854;DHT22;52627;48.838;2.402;2023-08-06T15:23:31;23.26;41.88
65854;DHT22;52627;48.838;2.402;2023-08-06T15:25:59;23.22;41.89
65854;DHT22;52627;48.838;2.402;2023-08-06T15:28:26;23.18;42.03
65854;DHT22;52627;48.838;2.402;2023-08-06T15:30:54;23.12;42.03
65854;DHT22;52627;48.838;2.402;2023-08-06T15:33:22;23.04;42.12
65854;DHT22;52627;48.838;2.402;2023-08-06T15:35:50;22.93;42.16
65854;DHT22;52627;48.838;2.402;2023-08-06T15:38:17;22.80;42.30
65854;DHT22;52627;48.838;2.402;2023-08-06T15:40:44;22.66;42.69
65854;DHT22;52627;48.838;2.402;2023-08-06T15:43:12;22.51;43.11
65854;DHT22;52627;48.838;2.402;2023-08-06T15:45:40;22.43;43.51
65854;DHT22;52627;48.838;2.402;2023-08-06T15:48:08;22.43;43.66
65854;DHT22;52627;48.838;2.402;2023-08-06T15:50:38;22.48;43.75
65854;DHT22;52627;48.838;2.402;2023-08-06T15:53:05;22.51;43.77